sensor_id;sensor_type;location;lat;lon;timestamp;pressure;altitude;pressure_sealevel;temperature;humidity
56604;BME280;42486;47.478;19.036;2022-09-01T00:01:51;100237.09;;;15.17;100.00
56604;BME280;42486;47.478;19.036;2022-09-01T00:04:53;100245.00;;;15.17;100.00
56604;BME280;42486;47.478;19.036;2022-09-01T00:07:59;100244.28;;;15.15;100.00
56604;BME280;42486;47.478;19.036;2022-09-01T00:11:01;100249.03;;;15.12;100.00
56604;BME280;42486;47.478;19.036;2022-09-01T00:14:04;100250.69;;;15.13;100.00
56604;BME280;42486;47.478;19.036;2022-09-01T00:17:24;100254.88;;;15.06;100.00
56604;BME280;42486;47.478;19.036;2022-09-01T00:20:26;100260.03;;;14.97;100.00
56604;BME280;42486;47.478;19.036;2022-09-01T00:23:28;100276.06;;;14.94;100.00
56604;BME280;42486;47.478;19.036;2022-09-01T00:26:30;100272.50;;;14.86;100.00
56604;BME280;42486;47.478;19.036;2022-09-01T00:29:32;100272.28;;;14.79;100.00
56604;BME280;42486;47.478;19.036;2022-09-01T00:32:34;100280.03;;;14.71;100.00
56604;BME280;42486;47.478;19.036;2022-09-01T00:35:36;100282.81;;;14.60;100.00
56604;BME280;42486;47.478;19.036;2022-09-01T00:38:38;100287.66;;;14.54;100.00
56604;BME280;42486;47.478;19.036;2022-09-01T00:41:40;100282.09;;;14.48;100.00
56604;BME280;42486;47.478;19.036;2022-09-01T00:44:45;100291.94;;;14.46;100.00
56604;BME280;42486;47.478;19.036;2022-09-01T00:47:48;100291.25;;;14.53;100.00
56604;BME280;42486;47.478;19.036;2022-09-01T00:50:50;100291.34;;;14.52;100.00
56604;BME280;42486;47.478;19.036;2022-09-01T00:53:55;100292.78;;;14.56;100.00
56604;BME280;42486;47.478;19.036;2022-09-01T00:56:57;100285.31;;;14.61;100.00
56604;BME280;42486;47.478;19.036;2022-09-01T01:00:03;100290.28;;;14.54;100.00
56604;BME280;42486;47.478;19.036;2022-09-01T01:03:07;100305.09;;;14.56;100.00
56604;BME280;42486;47.478;19.036;2022-09-01T01:06:09;100296.91;;;14.49;100.00
56604;BME280;42486;47.478;19.036;2022-09-01T01:09:15;100300.63;;;14.46;100.00
56604;BME280;42486;47.478;19.036;2022-09-01T01:12:18;100292.34;;;14.51;100.00
56604;BME280;42486;47.478;19.036;2022-09-01T01:15:20;100284.06;;;14.56;100.00
56604;BME280;42486;47.478;19.036;2022-09-01T01:18:22;100292.66;;;14.58;100.00
56604;BME280;42486;47.478;19.036;2022-09-01T01:21:25;100299.69;;;14.57;100.00
56604;BME280;42486;47.478;19.036;2022-09-01T01:24:48;100307.28;;;14.50;100.00
56604;BME280;42486;47.478;19.036;2022-09-01T01:27:51;100300.38;;;14.40;100.00
56604;BME280;42486;47.478;19.036;2022-09-01T01:30:54;100298.97;;;14.36;100.00
56604;BME280;42486;47.478;19.036;2022-09-01T01:33:57;100294.28;;;14.39;100.00
56604;BME280;42486;47.478;19.036;2022-09-01T01:37:00;100300.22;;;14.51;100.00
56604;BME280;42486;47.478;19.036;2022-09-01T01:40:02;100307.31;;;14.60;100.00
56604;BME280;42486;47.478;19.036;2022-09-01T01:43:04;100300.78;;;14.54;100.00
56604;BME280;42486;47.478;19.036;2022-09-01T01:46:07;100304.53;;;14.62;100.00
56604;BME280;42486;47.478;19.036;2022-09-01T01:49:11;100297.19;;;14.65;100.00
56604;BME280;42486;47.478;19.036;2022-09-01T01:52:21;100285.31;;;14.71;100.00
56604;BME280;42486;47.478;19.036;2022-09-01T01:55:28;100296.34;;;14.74;100.00
56604;BME280;42486;47.478;19.036;2022-09-01T01:58:32;100285.97;;;14.73;100.00
56604;BME280;42486;47.478;19.036;2022-09-01T02:01:35;100290.56;;;14.61;100.00
56604;BME280;42486;47.478;19.036;2022-09-01T02:04:39;100288.19;;;14.48;100.00
56604;BME280;42486;47.478;19.036;2022-09-01T02:07:42;100280.72;;;14.44;100.00
56604;BME280;42486;47.478;19.036;2022-09-01T02:10:44;100271.19;;;14.43;100.00
56604;BME280;42486;47.478;19.036;2022-09-01T02:13:47;100263.16;;;14.44;100.00
56604;BME280;42486;47.478;19.036;2022-09-01T02:16:50;100258.16;;;14.41;100.00
56604;BME280;42486;47.478;19.036;2022-09-01T02:19:52;100249.88;;;14.46;100.00
56604;BME280;42486;47.478;19.036;2022-09-01T02:22:58;100244.06;;;14.42;100.00
56604;BME280;42486;47.478;19.036;2022-09-01T02:26:11;100242.81;;;14.46;100.00
56604;BME280;42486;47.478;19.036;2022-09-01T02:29:19;100258.84;;;14.43;100.00
56604;BME280;42486;47.478;19.036;2022-09-01T02:32:22;100261.09;;;14.28;100.00
56604;BME280;42486;47.478;19.036;2022-09-01T02:35:25;100263.28;;;14.33;100.00
56604;BME280;42486;47.478;19.036;2022-09-01T02:38:34;100251.69;;;14.26;100.00
56604;BME280;42486;47.478;19.036;2022-09-01T02:41:39;100251.69;;;14.26;100.00
56604;BME280;42486;47.478;19.036;2022-09-01T02:44:41;100245.88;;;14.22;100.00
56604;BME280;42486;47.478;19.036;2022-09-01T02:47:44;100243.69;;;14.18;100.00
56604;BME280;42486;47.478;19.036;2022-09-01T15:22:46;100245.25;;;22.60;37.90
56604;BME280;42486;47.478;19.036;2022-09-01T15:25:51;100244.09;;;22.70;38.66
56604;BME280;42486;47.478;19.036;2022-09-01T15:28:54;100233.16;;;22.58;39.05
56604;BME280;42486;47.478;19.036;2022-09-01T15:31:57;100238.34;;;22.66;37.60
56604;BME280;42486;47.478;19.036;2022-09-01T15:35:00;100237.63;;;22.51;37.23
56604;BME280;42486;47.478;19.036;2022-09-01T15:38:05;100231.09;;;22.53;38.28
56604;BME280;42486;47.478;19.036;2022-09-01T15:41:09;100236.22;;;22.55;38.51
56604;BME280;42486;47.478;19.036;2022-09-01T15:44:16;100246.81;;;22.48;37.67
56604;BME280;42486;47.478;19.036;2022-09-01T15:47:18;100231.62;;;22.20;36.03
56604;BME280;42486;47.478;19.036;2022-09-01T15:50:22;100239.25;;;22.24;37.34
56604;BME280;42486;47.478;19.036;2022-09-01T15:53:28;100239.84;;;22.19;37.87
56604;BME280;42486;47.478;19.036;2022-09-01T15:56:32;100248.88;;;22.03;37.06
56604;BME280;42486;47.478;19.036;2022-09-01T15:59:35;100238.78;;;21.98;36.12
56604;BME280;42486;47.478;19.036;2022-09-01T16:02:42;100247.19;;;21.81;37.05
56604;BME280;42486;47.478;19.036;2022-09-01T16:05:45;100243.91;;;21.57;37.35
56604;BME280;42486;47.478;19.036;2022-09-01T16:08:49;100239.63;;;21.41;39.45
56604;BME280;42486;47.478;19.036;2022-09-01T16:11:58;100246.12;;;21.24;39.06
56604;BME280;42486;47.478;19.036;2022-09-01T16:15:03;100245.66;;;21.05;39.99
56604;BME280;42486;47.478;19.036;2022-09-01T16:18:14;100242.38;;;20.88;41.82
56604;BME280;42486;47.478;19.036;2022-09-01T16:24:41;100243.81;;;20.76;39.29
56604;BME280;42486;47.478;19.036;2022-09-01T16:27:45;100240.34;;;20.76;40.23
56604;BME280;42486;47.478;19.036;2022-09-01T16:30:50;100247.37;;;20.68;38.85
56604;BME280;42486;47.478;19.036;2022-09-01T16:33:55;100240.81;;;20.64;38.99
56604;BME280;42486;47.478;19.036;2022-09-01T16:37:07;100231.91;;;20.57;43.08
56604;BME280;42486;47.478;19.036;2022-09-01T16:46:32;100235.97;;;20.45;42.92
56604;BME280;42486;47.478;19.036;2022-09-01T16:49:49;100243.66;;;20.40;41.07
56604;BME280;42486;47.478;19.036;2022-09-01T16:56:33;100239.78;;;20.28;43.75
56604;BME280;42486;47.478;19.036;2022-09-01T17:03:04;100250.16;;;20.14;45.44
56604;BME280;42486;47.478;19.036;2022-09-01T17:06:28;100249.06;;;20.09;45.30
56604;BME280;42486;47.478;19.036;2022-09-01T17:09:40;100245.16;;;19.96;45.56
56604;BME280;42486;47.478;19.036;2022-09-01T17:15:54;100254.41;;;19.77;45.22
56604;BME280;42486;47.478;19.036;2022-09-01T17:18:59;100253.28;;;19.72;45.99
56604;BME280;42486;47.478;19.036;2022-09-01T17:22:04;100255.13;;;19.63;45.56
56604;BME280;42486;47.478;19.036;2022-09-01T17:25:08;100249.53;;;19.58;47.28
56604;BME280;42486;47.478;19.036;2022-09-01T17:28:36;100254.97;;;19.56;45.28
56604;BME280;42486;47.478;19.036;2022-09-01T17:34:56;100252.56;;;19.47;47.65
56604;BME280;42486;47.478;19.036;2022-09-01T17:41:21;100253.31;;;19.24;46.76
56604;BME280;42486;47.478;19.036;2022-09-01T17:44:28;100258.16;;;19.12;49.84
56604;BME280;42486;47.478;19.036;2022-09-01T17:47:45;100253.87;;;19.03;49.11
56604;BME280;42486;47.478;19.036;2022-09-01T17:51:08;100263.50;;;18.88;50.88
56604;BME280;42486;47.478;19.036;2022-09-01T17:57:40;100276.09;;;18.61;54.86
56604;BME280;42486;47.478;19.036;2022-09-01T18:04:09;100276.78;;;18.39;57.74
56604;BME280;42486;47.478;19.036;2022-09-01T18:10:54;100292.81;;;18.21;57.54
56604;BME280;42486;47.478;19.036;2022-09-01T18:14:13;100290.97;;;18.13;59.64
56604;BME280;42486;47.478;19.036;2022-09-01T18:17:30;100301.87;;;18.02;61.26
56604;BME280;42486;47.478;19.036;2022-09-01T18:20:44;100307.16;;;17.94;62.66
56604;BME280;42486;47.478;19.036;2022-09-01T18:23:54;100306.41;;;17.75;62.10
56604;BME280;42486;47.478;19.036;2022-09-01T18:27:00;100306.53;;;17.66;62.92
56604;BME280;42486;47.478;19.036;2022-09-01T18:30:05;100308.31;;;17.57;63.49
56604;BME280;42486;47.478;19.036;2022-09-01T18:33:25;100314.87;;;17.45;66.10
56604;BME280;42486;47.478;19.036;2022-09-01T18:36:53;100314.53;;;17.39;64.40
56604;BME280;42486;47.478;19.036;2022-09-01T18:39:55;100313.50;;;17.32;65.58
56604;BME280;42486;47.478;19.036;2022-09-01T18:43:21;100312.47;;;17.25;66.50
56604;BME280;42486;47.478;19.036;2022-09-01T18:46:32;100314.91;;;17.19;67.56
56604;BME280;42486;47.478;19.036;2022-09-01T18:49:57;100316.88;;;17.16;64.68
56604;BME280;42486;47.478;19.036;2022-09-01T18:56:17;100322.78;;;17.10;64.16
56604;BME280;42486;47.478;19.036;2022-09-01T19:12:15;100325.94;;;16.88;66.90
56604;BME280;42486;47.478;19.036;2022-09-01T19:22:36;100328.94;;;16.75;68.77
56604;BME280;42486;47.478;19.036;2022-09-01T19:25:42;100326.16;;;16.77;68.54
56604;BME280;42486;47.478;19.036;2022-09-01T19:31:55;100330.38;;;16.69;70.67
56604;BME280;42486;47.478;19.036;2022-09-01T19:35:09;100327.38;;;16.64;72.14
56604;BME280;42486;47.478;19.036;2022-09-01T19:38:21;100333.50;;;16.65;72.69
56604;BME280;42486;47.478;19.036;2022-09-01T19:41:33;100330.69;;;16.66;74.06
56604;BME280;42486;47.478;19.036;2022-09-01T19:44:48;100336.97;;;16.65;75.40
56604;BME280;42486;47.478;19.036;2022-09-01T19:51:02;100342.81;;;16.59;76.41
56604;BME280;42486;47.478;19.036;2022-09-01T19:54:19;100343.97;;;16.57;77.65
56604;BME280;42486;47.478;19.036;2022-09-01T20:00:43;100347.12;;;16.60;76.06
56604;BME280;42486;47.478;19.036;2022-09-01T20:03:53;100357.38;;;16.63;77.59
56604;BME280;42486;47.478;19.036;2022-09-01T20:06:59;100353.09;;;16.62;75.27
56604;BME280;42486;47.478;19.036;2022-09-01T20:19:27;100361.16;;;16.79;76.33
56604;BME280;42486;47.478;19.036;2022-09-01T20:22:32;100366.44;;;16.79;74.93
56604;BME280;42486;47.478;19.036;2022-09-01T20:25:41;100375.03;;;16.81;75.93
56604;BME280;42486;47.478;19.036;2022-09-01T20:31:57;100381.72;;;16.75;75.24
56604;BME280;42486;47.478;19.036;2022-09-01T20:35:09;100372.75;;;16.68;76.61
56604;BME280;42486;47.478;19.036;2022-09-01T20:45:16;100385.50;;;16.55;77.94
56604;BME280;42486;47.478;19.036;2022-09-01T20:48:23;100388.28;;;16.53;80.52
56604;BME280;42486;47.478;19.036;2022-09-01T20:54:41;100398.06;;;16.43;80.21
56604;BME280;42486;47.478;19.036;2022-09-01T21:01:02;100390.47;;;16.40;77.50
56604;BME280;42486;47.478;19.036;2022-09-01T21:04:30;100393.09;;;16.40;77.68
56604;BME280;42486;47.478;19.036;2022-09-01T21:20:28;100415.53;;;16.26;76.98
56604;BME280;42486;47.478;19.036;2022-09-01T21:23:33;100415.66;;;16.24;78.00
56604;BME280;42486;47.478;19.036;2022-09-01T21:26:36;100417.47;;;16.24;77.32
56604;BME280;42486;47.478;19.036;2022-09-01T21:32:46;100417.25;;;16.17;77.59
56604;BME280;42486;47.478;19.036;2022-09-01T21:35:49;100422.38;;;16.19;74.84
56604;BME280;42486;47.478;19.036;2022-09-01T21:38:52;100427.34;;;16.22;71.79
56604;BME280;42486;47.478;19.036;2022-09-01T21:41:55;100428.19;;;16.22;72.26
56604;BME280;42486;47.478;19.036;2022-09-01T21:44:58;100423.44;;;16.26;73.38
56604;BME280;42486;47.478;19.036;2022-09-01T21:48:02;100419.28;;;16.23;73.67
56604;BME280;42486;47.478;19.036;2022-09-01T21:51:05;100427.59;;;16.28;73.12
56604;BME280;42486;47.478;19.036;2022-09-01T21:54:08;100420.66;;;16.27;69.44
56604;BME280;42486;47.478;19.036;2022-09-01T21:57:12;100425.66;;;16.31;71.32
56604;BME280;42486;47.478;19.036;2022-09-01T22:00:17;100421.88;;;16.33;71.41
56604;BME280;42486;47.478;19.036;2022-09-01T22:03:20;100420.37;;;16.31;69.01
56604;BME280;42486;47.478;19.036;2022-09-01T22:06:24;100416.75;;;16.32;69.95
56604;BME280;42486;47.478;19.036;2022-09-01T22:09:27;100414.94;;;16.32;69.00
56604;BME280;42486;47.478;19.036;2022-09-01T22:12:30;100416.87;;;16.30;68.14
56604;BME280;42486;47.478;19.036;2022-09-01T22:15:32;100404.56;;;16.31;65.56
56604;BME280;42486;47.478;19.036;2022-09-01T22:18:35;100411.34;;;16.33;66.48
56604;BME280;42486;47.478;19.036;2022-09-01T22:21:38;100406.44;;;16.38;60.64
56604;BME280;42486;47.478;19.036;2022-09-01T22:24:41;100401.53;;;16.43;59.79
56604;BME280;42486;47.478;19.036;2022-09-01T22:27:44;100403.72;;;16.48;60.00
56604;BME280;42486;47.478;19.036;2022-09-01T22:30:47;100398.44;;;16.48;60.71
56604;BME280;42486;47.478;19.036;2022-09-01T22:33:52;100397.84;;;16.54;59.92
56604;BME280;42486;47.478;19.036;2022-09-01T22:36:55;100400.19;;;16.57;57.66
56604;BME280;42486;47.478;19.036;2022-09-01T22:39:58;100391.81;;;16.62;57.96
56604;BME280;42486;47.478;19.036;2022-09-01T22:43:00;100392.50;;;16.64;57.03
56604;BME280;42486;47.478;19.036;2022-09-01T22:46:04;100392.38;;;16.65;56.81
56604;BME280;42486;47.478;19.036;2022-09-01T22:49:07;100390.53;;;16.66;58.94
56604;BME280;42486;47.478;19.036;2022-09-01T22:52:09;100385.66;;;16.71;58.27
56604;BME280;42486;47.478;19.036;2022-09-01T22:55:14;100394.19;;;16.65;59.02
56604;BME280;42486;47.478;19.036;2022-09-01T22:58:18;100388.03;;;16.64;56.49
56604;BME280;42486;47.478;19.036;2022-09-01T23:01:22;100390.53;;;16.66;56.69
56604;BME280;42486;47.478;19.036;2022-09-01T23:04:26;100388.03;;;16.64;58.62
56604;BME280;42486;47.478;19.036;2022-09-01T23:07:29;100393.78;;;16.60;56.12
56604;BME280;42486;47.478;19.036;2022-09-01T23:10:31;100387.53;;;16.61;56.21
56604;BME280;42486;47.478;19.036;2022-09-01T23:13:34;100391.28;;;16.58;58.35
56604;BME280;42486;47.478;19.036;2022-09-01T23:16:39;100389.66;;;16.57;56.89
56604;BME280;42486;47.478;19.036;2022-09-01T23:19:42;100384.12;;;16.50;56.96
56604;BME280;42486;47.478;19.036;2022-09-01T23:22:45;100382.63;;;16.48;57.13
56604;BME280;42486;47.478;19.036;2022-09-01T23:25:48;100380.28;;;16.45;58.59
56604;BME280;42486;47.478;19.036;2022-09-01T23:28:54;100376.00;;;16.44;57.53
56604;BME280;42486;47.478;19.036;2022-09-01T23:31:58;100376.97;;;16.43;56.06
56604;BME280;42486;47.478;19.036;2022-09-01T23:35:02;100374.72;;;16.48;54.21
56604;BME280;42486;47.478;19.036;2022-09-01T23:38:04;100374.72;;;16.48;55.84
56604;BME280;42486;47.478;19.036;2022-09-01T23:41:08;100376.97;;;16.43;56.29
56604;BME280;42486;47.478;19.036;2022-09-01T23:44:11;100373.28;;;16.36;56.25
56604;BME280;42486;47.478;19.036;2022-09-01T23:47:16;100377.06;;;16.33;56.48
56604;BME280;42486;47.478;19.036;2022-09-01T23:50:18;100374.56;;;16.32;55.57
56604;BME280;42486;47.478;19.036;2022-09-01T23:53:22;100371.25;;;16.29;57.50
56604;BME280;42486;47.478;19.036;2022-09-01T23:56:26;100368.03;;;16.36;55.20
56604;BME280;42486;47.478;19.036;2022-09-01T23:59:29;100375.06;;;16.35;54.52
